Horizon II — 3FHB4 — position and weather

sailwx.info

Track history (hours):
 
Tides and Currents Weather Stations Pressure Air Temp Water Temp Dewpoint Dewpoint Depression Visibility Wind Speed Wind Dir Waves Ship Positions

Horizon II

Last reported at 2017-Feb-22 21:29 UTC. Time now 2017-Feb-23 02:35 UTC.
Position N 54°02' E 008°01'.

Length 255 m; draft 7.8 m.

Type: Cargo ship. MMSI: 357568000.

Date/timePositionNaut miles runAvg speedWind from/ knotsBaromVisibWave heightAir tempDewpointWater temp
2017-Feb-22 21:29N 54°02' E 008°01'1010.4
2017-Feb-22 20:33N 53°60' E 008°16'1111.2
2017-Feb-22 19:33N 53°58' E 008°35'9 9.3
2017-Feb-22 18:33N 53°51' E 008°46'1110.7
2017-Feb-22 17:33N 53°52' E 009°04'8 8.1
2017-Feb-22 16:33N 53°52' E 009°18'1414.0
2017-Feb-22 15:34N 53°40' E 009°31'1212.4
2017-Feb-22 14:33N 53°33' E 009°48'5 5.1
2017-Feb-22 13:31N 53°31' E 009°56'0 0.2
2017-Feb-22 12:31N 53°31' E 009°56'0 0.0
2017-Feb-22 11:31N 53°31' E 009°56'0 0.0
2017-Feb-22 10:31N 53°31' E 009°56'0 0.0
2017-Feb-22 09:31N 53°31' E 009°56'0 0.0
2017-Feb-22 08:31N 53°31' E 009°56'0 0.0
2017-Feb-22 07:31N 53°31' E 009°56'0 0.0
2017-Feb-22 06:31N 53°31' E 009°56'0 0.0
2017-Feb-22 05:31N 53°31' E 009°56'0 0.0
2017-Feb-22 04:31N 53°31' E 009°56'0 0.0
2017-Feb-22 03:31N 53°31' E 009°56'0 0.0
2017-Feb-22 02:31N 53°31' E 009°56'0 0.0
2017-Feb-22 01:31N 53°31' E 009°56'0 0.0
2017-Feb-22 00:31N 53°31' E 009°56'0 0.0
2017-Feb-21 23:31N 53°31' E 009°56'0 0.0
2017-Feb-21 22:31N 53°31' E 009°56'0 0.0
2017-Feb-21 21:31N 53°31' E 009°56'0 0.0
2017-Feb-21 20:31N 53°31' E 009°56'0 0.0
2017-Feb-21 19:31N 53°31' E 009°56'0 0.0
2017-Feb-21 18:31N 53°31' E 009°56'0 0.0
2017-Feb-21 17:31N 53°31' E 009°56'0 0.0
2017-Feb-21 16:31N 53°31' E 009°56'0 0.0
2017-Feb-21 15:31N 53°31' E 009°56'0 0.0
2017-Feb-21 14:31N 53°31' E 009°56'0 0.0
2017-Feb-21 13:28N 53°31' E 009°56'0 0.0
2017-Feb-21 12:31N 53°31' E 009°56'0 0.0
2017-Feb-21 11:31N 53°31' E 009°56'0 0.0
2017-Feb-21 10:31N 53°31' E 009°56'0 0.0
2017-Feb-21 09:31N 53°31' E 009°56'0 0.0
2017-Feb-21 08:31N 53°31' E 009°56'0 0.0
2017-Feb-21 07:31N 53°31' E 009°56'0 0.0
2017-Feb-21 06:31N 53°31' E 009°56'0 0.0
2017-Feb-21 05:31N 53°31' E 009°56'0 0.0
2017-Feb-21 04:31N 53°31' E 009°56'0 0.0
2017-Feb-21 03:31N 53°31' E 009°56'0 0.0
2017-Feb-21 02:31N 53°31' E 009°56'0 0.0
2017-Feb-21 01:31N 53°31' E 009°56'0 0.0
2017-Feb-21 00:31N 53°31' E 009°56'0 0.0
2017-Feb-20 23:31N 53°31' E 009°56'0 0.0
2017-Feb-20 22:31N 53°31' E 009°56'0 0.0
2017-Feb-20 21:31N 53°31' E 009°56'0 0.0
2017-Feb-20 20:31N 53°31' E 009°56'0 0.0
2017-Feb-20 19:31N 53°31' E 009°56'0 0.0
2017-Feb-20 18:31N 53°31' E 009°56'0 0.0
2017-Feb-20 17:31N 53°31' E 009°56'0 0.0
2017-Feb-20 16:31N 53°31' E 009°56'0 0.0
2017-Feb-20 15:28N 53°31' E 009°56'0 0.0
2017-Feb-20 14:31N 53°31' E 009°56'0 0.0
2017-Feb-20 13:28N 53°31' E 009°56'0 0.0
2017-Feb-20 12:31N 53°31' E 009°56'0 0.0
2017-Feb-20 11:31N 53°31' E 009°56'0 0.0
2017-Feb-20 10:31N 53°31' E 009°56'0 0.0
2017-Feb-20 09:31N 53°31' E 009°56'0 0.0
2017-Feb-20 08:31N 53°31' E 009°56'0 0.0
2017-Feb-20 07:31N 53°31' E 009°56'0 0.0
2017-Feb-20 06:31N 53°31' E 009°56'0 0.0
2017-Feb-20 05:31N 53°31' E 009°56'0 0.0
2017-Feb-20 04:31N 53°31' E 009°56'0 0.0
2017-Feb-20 03:31N 53°31' E 009°56'0 0.0
2017-Feb-20 02:31N 53°31' E 009°56'0 0.0
2017-Feb-20 01:31N 53°31' E 009°56'0 0.0
2017-Feb-20 00:31N 53°31' E 009°56'0 0.0
2017-Feb-19 23:31N 53°31' E 009°56'0 0.0
2017-Feb-19 22:34N 53°31' E 009°56'0 0.0
2017-Feb-19 21:34N 53°31' E 009°56'0 0.2
2017-Feb-19 20:33N 53°31' E 009°56'5 5.1
2017-Feb-19 19:33N 53°33' E 009°48'9 8.6
2017-Feb-19 18:33N 53°36' E 009°35'1111.3
2017-Feb-19 17:33N 53°46' E 009°24'1211.6
2017-Feb-19 16:33N 53°53' E 009°09'1010.2
2017-Feb-19 15:33N 53°50' E 008°52'1111.2
2017-Feb-19 14:33N 53°57' E 008°37'1312.9
2017-Feb-19 13:33N 53°59' E 008°15'1010.1
2017-Feb-19 12:33N 53°59' E 007°58'35 3.4
2017-Feb-19 02:25N 54°09' E 007°01'3511.9
2017-Feb-18 23:28N 54°07' E 006°01'1111.7
2017-Feb-18 22:33N 54°05' E 005°43'1211.5
2017-Feb-18 21:33N 54°04' E 005°23'1211.1
2017-Feb-18 20:27N 54°00' E 005°04'28 9.6
2017-Feb-18 17:31N 53°46' E 004°22'15011.2
2017-Feb-18 04:09N 51°35' E 002°21'711.9
2017-Feb-18 03:33N 51°30' E 002°13'1111.4
2017-Feb-18 02:33N 51°22' E 002°01'1110.8
2017-Feb-18 01:33N 51°14' E 001°50'10 9.6
2017-Feb-18 00:34N 51°06' E 001°40'9 9.1
2017-Feb-17 23:34N 50°59' E 001°31'67 9.5
2017-Feb-17 16:27N 50°20' E 000°05'1011.2
2017-Feb-17 15:33N 50°16' W 000°10'2612.3
2017-Feb-17 13:26N 50°10' W 000°49'1213.8
2017-Feb-17 12:33N 50°07' W 001°08'1414.1
2017-Feb-17 11:33N 50°03' W 001°29'1414.1
2017-Feb-17 10:33N 49°60' W 001°50'3712.1
2017-Feb-17 07:28N 49°50' W 002°46'2410.4
2017-Feb-17 05:08N 49°40' W 003°20'2110.3
2017-Feb-17 03:05N 49°30' W 003°49'  
Track history (hours):
 
Tides and Currents Weather Stations Pressure Air Temp Water Temp Dewpoint Dewpoint Depression Visibility Wind Speed Wind Dir Waves Ship Positions

Horizon II

Last reported at 2017-Feb-22 21:29 UTC. Time now 2017-Feb-23 02:35 UTC.
Position N 54°02' E 008°01'.

Length 255 m; draft 7.8 m.

Type: Cargo ship. MMSI: 357568000.

Date/timePositionNaut miles runAvg speedWind from/ knotsBaromVisibWave heightAir tempDewpointWater temp
2017-Feb-22 21:29N 54°02' E 008°01'1010.4
2017-Feb-22 20:33N 53°60' E 008°16'1111.2
2017-Feb-22 19:33N 53°58' E 008°35'9 9.3
2017-Feb-22 18:33N 53°51' E 008°46'1110.7
2017-Feb-22 17:33N 53°52' E 009°04'8 8.1
2017-Feb-22 16:33N 53°52' E 009°18'1414.0
2017-Feb-22 15:34N 53°40' E 009°31'1212.4
2017-Feb-22 14:33N 53°33' E 009°48'5 5.1
2017-Feb-22 13:31N 53°31' E 009°56'0 0.2
2017-Feb-22 12:31N 53°31' E 009°56'0 0.0
2017-Feb-22 11:31N 53°31' E 009°56'0 0.0
2017-Feb-22 10:31N 53°31' E 009°56'0 0.0
2017-Feb-22 09:31N 53°31' E 009°56'0 0.0
2017-Feb-22 08:31N 53°31' E 009°56'0 0.0
2017-Feb-22 07:31N 53°31' E 009°56'0 0.0
2017-Feb-22 06:31N 53°31' E 009°56'0 0.0
2017-Feb-22 05:31N 53°31' E 009°56'0 0.0
2017-Feb-22 04:31N 53°31' E 009°56'0 0.0
2017-Feb-22 03:31N 53°31' E 009°56'0 0.0
2017-Feb-22 02:31N 53°31' E 009°56'0 0.0
2017-Feb-22 01:31N 53°31' E 009°56'0 0.0
2017-Feb-22 00:31N 53°31' E 009°56'0 0.0
2017-Feb-21 23:31N 53°31' E 009°56'0 0.0
2017-Feb-21 22:31N 53°31' E 009°56'0 0.0
2017-Feb-21 21:31N 53°31' E 009°56'0 0.0
2017-Feb-21 20:31N 53°31' E 009°56'0 0.0
2017-Feb-21 19:31N 53°31' E 009°56'0 0.0
2017-Feb-21 18:31N 53°31' E 009°56'0 0.0
2017-Feb-21 17:31N 53°31' E 009°56'0 0.0
2017-Feb-21 16:31N 53°31' E 009°56'0 0.0
2017-Feb-21 15:31N 53°31' E 009°56'0 0.0
2017-Feb-21 14:31N 53°31' E 009°56'0 0.0
2017-Feb-21 13:28N 53°31' E 009°56'0 0.0
2017-Feb-21 12:31N 53°31' E 009°56'0 0.0
2017-Feb-21 11:31N 53°31' E 009°56'0 0.0
2017-Feb-21 10:31N 53°31' E 009°56'0 0.0
2017-Feb-21 09:31N 53°31' E 009°56'0 0.0
2017-Feb-21 08:31N 53°31' E 009°56'0 0.0
2017-Feb-21 07:31N 53°31' E 009°56'0 0.0
2017-Feb-21 06:31N 53°31' E 009°56'0 0.0
2017-Feb-21 05:31N 53°31' E 009°56'0 0.0
2017-Feb-21 04:31N 53°31' E 009°56'0 0.0
2017-Feb-21 03:31N 53°31' E 009°56'0 0.0
2017-Feb-21 02:31N 53°31' E 009°56'0 0.0
2017-Feb-21 01:31N 53°31' E 009°56'0 0.0
2017-Feb-21 00:31N 53°31' E 009°56'0 0.0
2017-Feb-20 23:31N 53°31' E 009°56'0 0.0
2017-Feb-20 22:31N 53°31' E 009°56'0 0.0
2017-Feb-20 21:31N 53°31' E 009°56'0 0.0
2017-Feb-20 20:31N 53°31' E 009°56'0 0.0
2017-Feb-20 19:31N 53°31' E 009°56'0 0.0
2017-Feb-20 18:31N 53°31' E 009°56'0 0.0
2017-Feb-20 17:31N 53°31' E 009°56'0 0.0
2017-Feb-20 16:31N 53°31' E 009°56'0 0.0
2017-Feb-20 15:28N 53°31' E 009°56'0 0.0
2017-Feb-20 14:31N 53°31' E 009°56'0 0.0
2017-Feb-20 13:28N 53°31' E 009°56'0 0.0
2017-Feb-20 12:31N 53°31' E 009°56'0 0.0
2017-Feb-20 11:31N 53°31' E 009°56'0 0.0
2017-Feb-20 10:31N 53°31' E 009°56'0 0.0
2017-Feb-20 09:31N 53°31' E 009°56'0 0.0
2017-Feb-20 08:31N 53°31' E 009°56'0 0.0
2017-Feb-20 07:31N 53°31' E 009°56'0 0.0
2017-Feb-20 06:31N 53°31' E 009°56'0 0.0
2017-Feb-20 05:31N 53°31' E 009°56'0 0.0
2017-Feb-20 04:31N 53°31' E 009°56'0 0.0
2017-Feb-20 03:31N 53°31' E 009°56'0 0.0
2017-Feb-20 02:31N 53°31' E 009°56'0 0.0
2017-Feb-20 01:31N 53°31' E 009°56'0 0.0
2017-Feb-20 00:31N 53°31' E 009°56'0 0.0
2017-Feb-19 23:31N 53°31' E 009°56'0 0.0
2017-Feb-19 22:34N 53°31' E 009°56'0 0.0
2017-Feb-19 21:34N 53°31' E 009°56'0 0.2
2017-Feb-19 20:33N 53°31' E 009°56'5 5.1
2017-Feb-19 19:33N 53°33' E 009°48'9 8.6
2017-Feb-19 18:33N 53°36' E 009°35'1111.3
2017-Feb-19 17:33N 53°46' E 009°24'1211.6
2017-Feb-19 16:33N 53°53' E 009°09'1010.2
2017-Feb-19 15:33N 53°50' E 008°52'1111.2
2017-Feb-19 14:33N 53°57' E 008°37'1312.9
2017-Feb-19 13:33N 53°59' E 008°15'1010.1
2017-Feb-19 12:33N 53°59' E 007°58'35 3.4
2017-Feb-19 02:25N 54°09' E 007°01'3511.9
2017-Feb-18 23:28N 54°07' E 006°01'1111.7
2017-Feb-18 22:33N 54°05' E 005°43'1211.5
2017-Feb-18 21:33N 54°04' E 005°23'1211.1
2017-Feb-18 20:27N 54°00' E 005°04'28 9.6
2017-Feb-18 17:31N 53°46' E 004°22'15011.2
2017-Feb-18 04:09N 51°35' E 002°21'711.9
2017-Feb-18 03:33N 51°30' E 002°13'1111.4
2017-Feb-18 02:33N 51°22' E 002°01'1110.8
2017-Feb-18 01:33N 51°14' E 001°50'10 9.6
2017-Feb-18 00:34N 51°06' E 001°40'9 9.1
2017-Feb-17 23:34N 50°59' E 001°31'67 9.5
2017-Feb-17 16:27N 50°20' E 000°05'1011.2
2017-Feb-17 15:33N 50°16' W 000°10'2612.3
2017-Feb-17 13:26N 50°10' W 000°49'1213.8
2017-Feb-17 12:33N 50°07' W 001°08'1414.1
2017-Feb-17 11:33N 50°03' W 001°29'1414.1
2017-Feb-17 10:33N 49°60' W 001°50'3712.1
2017-Feb-17 07:28N 49°50' W 002°46'2410.4
2017-Feb-17 05:08N 49°40' W 003°20'2110.3
2017-Feb-17 03:05N 49°30' W 003°49'  

Dump ship's entire track history